KPWK/PWK METAR and TAF weather

Enter ICAO airport designator
Station Type Date Time Source
KPWK METAR 2020/09/23 02:52 UTC NOAA

KPWK 230252Z 00000KT 10SM CLR 18/13 A3010 RMK AO2 SLP189 T01780133 51003


Station Type Date Time Source
KPWK Decoded METAR 2020/09/23 02:52 UTC NOAA

CHICAGO EXECUTIVE AIRPORT, IL, United States (KPWK) 42-07N 087-54W 203M
Sep 22, 2020 - 10:52 PM EDT / 2020.09.23 0252 UTC
Wind: Calm:0
Visibility: 10 mile(s):0
Sky conditions: clear
Temperature: 64.0 F (17.8 C)
Dew Point: 55.9 F (13.3 C)
Relative Humidity: 74%
Pressure (altimeter): 30.1 in. Hg (1019 hPa)
Pressure tendency: 0.01 inches (0.3 hPa) higher than three hours ago
ob: KPWK 230252Z 00000KT 10SM CLR 18/13 A3010 RMK AO2 SLP189 T01780133 51003
cycle: 3

Station Type Date Time Source
KPWK TAF UTC NOAA

Error!

Example: see airport list